Time;durP1;ratioP1;P1;durP2;ratioP2;P2;SDS_P1;SDS_P2;PMS_P1;PMS_P2;Temp;Humidity;BMP_temperature;BMP_pressure;BME280_temperature;BME280_humidity;BME280_pressure;Samples;Min_cycle;Max_cycle;Signal;HPM_P1;HPM_P2
2021/12/16 00:03:16;;;;;;;24.67;13.23;;;;;;;;;;5021946;28;20668;-83
2021/12/16 00:06:05;;;;;;;29.60;13.77;;;;;;;;;;5022002;28;20231;-83
2021/12/16 00:08:36;;;;;;;31.03;13.07;;;;;;;;;;5027549;28;20195;-83
2021/12/16 00:11:14;;;;;;;25.50;13.83;;;;;;;;;;5016184;28;20291;-83
2021/12/16 00:19:52;;;;;;;30.90;13.70;;;;;;;;;;4988955;28;20216;-83
2021/12/16 00:31:04;;;;;;;30.93;13.50;;;;;;;;;;5021929;28;20227;-85
2021/12/16 00:33:37;;;;;;;30.37;14.37;;;;;;;;;;5020450;28;20295;-86
2021/12/16 00:36:07;;;;;;;34.17;13.63;;;;;;;;;;5023658;28;20240;-84
2021/12/16 00:38:35;;;;;;;34.40;13.50;;;;;;;;;;5023269;28;20218;-85
2021/12/16 00:41:02;;;;;;;31.17;13.23;;;;;;;;;;5021517;28;20215;-85
2021/12/16 00:43:36;;;;;;;26.80;13.57;;;;;;;;;;5022375;28;20247;-84
2021/12/16 00:46:27;;;;;;;26.63;12.73;;;;;;;;;;5023868;28;20232;-84
2021/12/16 00:49:19;;;;;;;27.53;13.67;;;;;;;;;;5025145;28;20193;-85
2021/12/16 00:54:43;;;;;;;28.37;13.73;;;;;;;;;;4991220;28;20295;-86
2021/12/16 00:57:14;;;;;;;35.00;13.83;;;;;;;;;;5033403;28;20235;-85
2021/12/16 00:59:44;;;;;;;33.37;14.27;;;;;;;;;;5029921;28;20232;-83
2021/12/16 01:02:27;;;;;;;26.10;13.07;;;;;;;;;;5027655;28;20208;-85
2021/12/16 01:05:18;;;;;;;26.30;12.90;;;;;;;;;;5029186;28;20244;-86
2021/12/16 01:08:10;;;;;;;29.20;13.43;;;;;;;;;;5033042;28;20571;-83
2021/12/16 01:35:41;;;;;;;26.30;12.43;;;;;;;;;;5023550;28;20359;-82
2021/12/16 01:46:42;;;;;;;34.47;15.20;;;;;;;;;;5017095;28;20588;-83
2021/12/16 01:49:33;;;;;;;30.03;14.40;;;;;;;;;;5018338;28;20203;-85
2021/12/16 01:52:25;;;;;;;31.00;14.13;;;;;;;;;;5018867;28;20587;-84
2021/12/16 01:55:05;;;;;;;28.50;13.00;;;;;;;;;;5018644;28;20236;-85
2021/12/16 01:57:35;;;;;;;31.30;13.23;;;;;;;;;;5019025;28;20223;-83
2021/12/16 02:00:07;;;;;;;26.00;12.67;;;;;;;;;;5021067;28;20219;-84
2021/12/16 02:02:41;;;;;;;31.37;13.77;;;;;;;;;;5019525;28;20224;-85
2021/12/16 02:05:23;;;;;;;29.93;14.43;;;;;;;;;;5018970;28;20250;-84
2021/12/16 02:10:58;;;;;;;28.37;13.40;;;;;;;;;;5114724;27;20557;-78
2021/12/16 02:27:10;;;;;;;27.90;13.03;;;;;;;;;;5122172;28;20387;-79
2021/12/16 02:27:42;;;;;;;29.57;13.80;;;;;;;;;;5116972;28;20199;-81
2021/12/16 02:33:13;;;;;;;27.13;13.83;;;;;;;;;;5117049;27;20196;-83
2021/12/16 02:35:45;;;;;;;26.80;13.07;;;;;;;;;;5118187;28;20216;-81
2021/12/16 02:38:15;;;;;;;29.67;13.70;;;;;;;;;;5118863;28;20216;-80
2021/12/16 02:40:43;;;;;;;29.87;14.70;;;;;;;;;;5120543;27;20211;-81
2021/12/16 02:43:26;;;;;;;26.83;13.57;;;;;;;;;;5117783;28;20642;-81
2021/12/16 02:48:41;;;;;;;30.57;14.13;;;;;;;;;;5117422;28;20580;-80
2021/12/16 02:51:10;;;;;;;30.10;14.50;;;;;;;;;;5118718;28;20224;-82
2021/12/16 02:53:41;;;;;;;32.63;14.17;;;;;;;;;;5116405;28;20295;-81
2021/12/16 02:56:09;;;;;;;38.27;14.07;;;;;;;;;;5121747;28;20232;-83
2021/12/16 02:58:37;;;;;;;30.53;13.93;;;;;;;;;;5127627;28;20304;-82
2021/12/16 03:01:06;;;;;;;32.63;13.97;;;;;;;;;;5136564;27;20228;-82
2021/12/16 03:03:35;;;;;;;25.90;12.57;;;;;;;;;;5123500;27;20205;-80
2021/12/16 03:06:03;;;;;;;31.63;14.80;;;;;;;;;;5115013;28;20633;-81
2021/12/16 03:08:32;;;;;;;37.00;14.47;;;;;;;;;;5118982;27;20706;-79
2021/12/16 03:11:16;;;;;;;31.40;14.80;;;;;;;;;;5117082;28;20261;-82
2021/12/16 03:13:55;;;;;;;30.80;13.40;;;;;;;;;;5112356;28;20212;-81
2021/12/16 03:16:29;;;;;;;29.03;14.13;;;;;;;;;;5115499;28;20316;-82
2021/12/16 03:19:10;;;;;;;36.13;15.07;;;;;;;;;;5116741;28;20196;-81
2021/12/16 03:21:42;;;;;;;29.57;14.33;;;;;;;;;;5106636;28;20204;-82
2021/12/16 03:24:31;;;;;;;31.97;15.00;;;;;;;;;;5106625;28;20211;-82
2021/12/16 03:30:47;;;;;;;27.80;14.27;;;;;;;;;;5124942;27;21088;-80
2021/12/16 03:36:25;;;;;;;33.27;14.33;;;;;;;;;;5058323;28;20311;-82
2021/12/16 03:38:54;;;;;;;39.40;14.50;;;;;;;;;;5094251;28;20215;-81
2021/12/16 03:41:22;;;;;;;30.87;14.53;;;;;;;;;;5096778;28;20213;-81
2021/12/16 03:43:51;;;;;;;34.57;14.63;;;;;;;;;;5103871;28;20341;-82
2021/12/16 03:46:27;;;;;;;30.40;14.67;;;;;;;;;;5099393;28;20298;-81
2021/12/16 03:48:58;;;;;;;29.67;13.57;;;;;;;;;;5096889;28;20301;-82
2021/12/16 03:51:27;;;;;;;27.57;12.53;;;;;;;;;;5102163;28;20207;-80
2021/12/16 03:53:59;;;;;;;29.40;13.47;;;;;;;;;;5092184;28;20535;-80
2021/12/16 03:56:26;;;;;;;31.13;14.60;;;;;;;;;;5090985;28;20222;-81
2021/12/16 03:58:53;;;;;;;35.43;14.43;;;;;;;;;;5093461;28;20269;-80
2021/12/16 04:01:23;;;;;;;27.40;13.03;;;;;;;;;;5092330;28;20606;-80
2021/12/16 04:03:50;;;;;;;35.93;14.33;;;;;;;;;;5093142;28;20301;-80
2021/12/16 04:06:18;;;;;;;30.57;14.03;;;;;;;;;;5092343;28;20235;-80
2021/12/16 04:08:46;;;;;;;31.80;14.33;;;;;;;;;;5094663;28;20630;-81
2021/12/16 04:11:19;;;;;;;31.03;14.13;;;;;;;;;;5096012;28;20267;-80
2021/12/16 04:13:55;;;;;;;27.77;13.53;;;;;;;;;;5095361;28;20256;-79
2021/12/16 04:16:25;;;;;;;33.77;14.03;;;;;;;;;;5093694;28;20225;-80
2021/12/16 04:18:52;;;;;;;29.20;13.97;;;;;;;;;;5095272;28;20218;-79
2021/12/16 04:21:21;;;;;;;34.27;14.00;;;;;;;;;;5098290;28;20268;-79
2021/12/16 04:23:48;;;;;;;30.23;14.03;;;;;;;;;;5101727;28;20262;-78
2021/12/16 04:26:16;;;;;;;34.00;14.47;;;;;;;;;;5092207;28;20252;-78
2021/12/16 04:28:43;;;;;;;32.10;14.17;;;;;;;;;;5100398;28;20300;-78
2021/12/16 04:31:11;;;;;;;33.97;14.27;;;;;;;;;;5097795;28;20212;-79
2021/12/16 04:33:40;;;;;;;34.63;15.17;;;;;;;;;;5100038;28;20292;-78
2021/12/16 04:36:08;;;;;;;31.70;13.80;;;;;;;;;;5097171;28;22440;-79
2021/12/16 04:38:38;;;;;;;32.37;14.83;;;;;;;;;;5096594;28;20201;-79
2021/12/16 04:41:09;;;;;;;30.63;13.73;;;;;;;;;;5085229;28;20220;-78
2021/12/16 04:43:40;;;;;;;32.47;13.47;;;;;;;;;;5085369;28;20238;-80
2021/12/16 04:46:09;;;;;;;32.03;14.33;;;;;;;;;;5085181;28;20707;-79
2021/12/16 04:48:36;;;;;;;28.63;14.30;;;;;;;;;;5085795;28;20256;-79
2021/12/16 04:51:05;;;;;;;32.77;14.00;;;;;;;;;;5087713;28;20316;-79
2021/12/16 04:53:33;;;;;;;31.80;13.80;;;;;;;;;;5082939;28;20655;-80
2021/12/16 04:56:00;;;;;;;37.10;15.40;;;;;;;;;;5089034;28;20313;-79
2021/12/16 04:58:28;;;;;;;35.27;15.07;;;;;;;;;;5095887;28;20545;-81
2021/12/16 05:00:55;;;;;;;42.17;17.03;;;;;;;;;;5084698;28;20209;-78
2021/12/16 05:03:23;;;;;;;44.90;19.43;;;;;;;;;;5080341;28;20278;-80
2021/12/16 05:05:51;;;;;;;36.90;16.13;;;;;;;;;;5087242;28;20222;-79
2021/12/16 05:08:19;;;;;;;35.27;15.83;;;;;;;;;;5081591;28;20303;-80
2021/12/16 05:10:49;;;;;;;42.07;17.80;;;;;;;;;;5085314;28;20330;-80
2021/12/16 05:13:18;;;;;;;37.73;18.07;;;;;;;;;;5082966;28;20220;-79
2021/12/16 05:15:46;;;;;;;37.10;17.27;;;;;;;;;;5081580;28;20249;-80
2021/12/16 05:18:19;;;;;;;31.80;15.33;;;;;;;;;;5084030;28;20267;-79
2021/12/16 05:20:46;;;;;;;41.00;16.33;;;;;;;;;;5084402;28;20205;-80
2021/12/16 05:26:16;;;;;;;41.30;16.20;;;;;;;;;;5085621;28;20263;-80
2021/12/16 05:28:47;;;;;;;47.47;18.67;;;;;;;;;;5081962;28;20228;-79
2021/12/16 05:31:15;;;;;;;45.03;18.60;;;;;;;;;;5084542;28;20292;-79
2021/12/16 05:33:42;;;;;;;41.50;18.23;;;;;;;;;;5084236;28;20588;-80
2021/12/16 05:36:10;;;;;;;43.63;18.23;;;;;;;;;;5078200;28;20332;-79
2021/12/16 05:38:37;;;;;;;46.20;19.33;;;;;;;;;;5082094;28;20205;-79
2021/12/16 05:41:07;;;;;;;47.77;18.73;;;;;;;;;;5085252;28;20244;-79
2021/12/16 05:43:35;;;;;;;34.97;16.23;;;;;;;;;;5080251;28;20289;-79
2021/12/16 05:46:02;;;;;;;41.50;16.50;;;;;;;;;;5074338;28;20312;-80
2021/12/16 05:48:30;;;;;;;43.50;16.43;;;;;;;;;;5075469;28;20340;-79
2021/12/16 05:50:59;;;;;;;35.83;16.50;;;;;;;;;;5075312;28;22525;-79
2021/12/16 05:53:26;;;;;;;44.13;16.40;;;;;;;;;;5069403;28;20265;-79
2021/12/16 05:55:53;;;;;;;45.20;17.23;;;;;;;;;;5076740;28;20233;-78
2021/12/16 05:58:22;;;;;;;52.07;18.33;;;;;;;;;;5087852;28;20226;-80
2021/12/16 06:00:50;;;;;;;76.27;16.73;;;;;;;;;;5085885;28;20686;-80
2021/12/16 06:03:18;;;;;;;101.00;15.70;;;;;;;;;;5085161;28;20198;-80
2021/12/16 06:05:45;;;;;;;147.17;18.33;;;;;;;;;;5088304;28;20237;-80
2021/12/16 06:08:12;;;;;;;141.10;17.70;;;;;;;;;;5082072;28;20293;-79
2021/12/16 06:13:32;;;;;;;45.33;16.80;;;;;;;;;;5064337;28;20208;-80
2021/12/16 06:22:24;;;;;;;46.57;16.80;;;;;;;;;;5073461;28;20228;-81
2021/12/16 06:27:10;;;;;;;46.87;16.93;;;;;;;;;;5081054;28;20221;-82
2021/12/16 06:29:41;;;;;;;51.53;19.23;;;;;;;;;;5084245;28;20221;-81
2021/12/16 06:32:08;;;;;;;53.07;18.93;;;;;;;;;;5080666;28;20212;-81
2021/12/16 06:34:36;;;;;;;56.90;18.53;;;;;;;;;;5083674;28;20293;-82
2021/12/16 06:37:03;;;;;;;48.03;18.43;;;;;;;;;;5081982;28;20237;-81
2021/12/16 06:39:30;;;;;;;58.87;17.17;;;;;;;;;;5080683;28;20234;-81
2021/12/16 06:41:58;;;;;;;50.53;18.20;;;;;;;;;;5089596;28;20229;-81
2021/12/16 06:44:30;;;;;;;60.07;19.00;;;;;;;;;;5093053;28;20212;-81
2021/12/16 06:47:03;;;;;;;50.43;16.97;;;;;;;;;;5094116;28;20294;-81
2021/12/16 06:49:32;;;;;;;50.60;18.57;;;;;;;;;;5094056;28;20320;-81
2021/12/16 06:52:02;;;;;;;199.50;25.73;;;;;;;;;;5091183;28;20573;-81
2021/12/16 06:54:35;;;;;;;84.03;19.70;;;;;;;;;;5099608;28;20250;-80
2021/12/16 06:57:17;;;;;;;78.20;20.10;;;;;;;;;;5096002;28;20205;-81
2021/12/16 06:59:53;;;;;;;132.17;18.70;;;;;;;;;;5092921;28;20209;-81
2021/12/16 07:02:41;;;;;;;107.77;18.47;;;;;;;;;;5088893;28;20201;-80
2021/12/16 07:05:09;;;;;;;46.83;16.03;;;;;;;;;;5086613;28;20279;-81
2021/12/16 07:07:37;;;;;;;47.37;16.23;;;;;;;;;;5090593;28;20800;-81
2021/12/16 07:10:04;;;;;;;110.03;24.27;;;;;;;;;;5089340;28;20285;-81
2021/12/16 07:12:37;;;;;;;94.50;34.00;;;;;;;;;;5087485;28;20600;-80
2021/12/16 07:15:05;;;;;;;80.43;26.67;;;;;;;;;;5081839;28;20310;-79
2021/12/16 07:17:34;;;;;;;80.40;21.00;;;;;;;;;;5085351;28;20337;-81
2021/12/16 07:20:01;;;;;;;47.77;17.60;;;;;;;;;;5083864;28;20251;-81
2021/12/16 07:22:29;;;;;;;50.43;19.23;;;;;;;;;;5085853;28;20644;-81
2021/12/16 07:24:56;;;;;;;60.97;19.37;;;;;;;;;;5084948;28;20226;-81
2021/12/16 07:27:23;;;;;;;60.27;19.37;;;;;;;;;;5092851;28;20229;-80
2021/12/16 07:29:50;;;;;;;111.17;22.00;;;;;;;;;;5085584;28;20720;-80
2021/12/16 07:32:17;;;;;;;60.63;19.07;;;;;;;;;;5085288;28;20237;-81
2021/12/16 07:34:46;;;;;;;58.23;20.00;;;;;;;;;;5090437;28;20218;-80
2021/12/16 07:37:13;;;;;;;53.30;20.47;;;;;;;;;;5087473;28;20251;-81
2021/12/16 07:39:44;;;;;;;72.20;19.97;;;;;;;;;;5092704;28;20276;-80
2021/12/16 07:42:15;;;;;;;129.83;21.27;;;;;;;;;;5086087;28;20690;-82
2021/12/16 07:44:42;;;;;;;81.20;21.37;;;;;;;;;;5089076;28;20226;-80
2021/12/16 07:47:12;;;;;;;95.37;24.93;;;;;;;;;;5087054;28;20225;-80
2021/12/16 07:49:43;;;;;;;67.13;21.53;;;;;;;;;;5089529;28;20221;-79
2021/12/16 07:52:14;;;;;;;65.70;21.23;;;;;;;;;;5088762;28;20219;-80
2021/12/16 07:54:41;;;;;;;58.53;22.97;;;;;;;;;;5087752;28;20252;-79
2021/12/16 07:57:08;;;;;;;54.37;22.50;;;;;;;;;;5087569;28;20245;-81
2021/12/16 07:59:37;;;;;;;61.97;22.17;;;;;;;;;;5076456;28;20234;-79
2021/12/16 08:02:07;;;;;;;51.27;21.17;;;;;;;;;;5071446;28;20202;-82
2021/12/16 08:04:41;;;;;;;62.00;23.33;;;;;;;;;;5077227;28;20254;-80
2021/12/16 08:07:09;;;;;;;56.10;22.80;;;;;;;;;;5077751;28;20210;-81
2021/12/16 08:09:40;;;;;;;72.50;25.33;;;;;;;;;;5077638;28;20222;-79
2021/12/16 08:12:08;;;;;;;65.33;25.57;;;;;;;;;;5079796;28;20260;-80
2021/12/16 08:14:36;;;;;;;72.87;29.17;;;;;;;;;;5081440;28;20229;-80
2021/12/16 08:17:03;;;;;;;75.63;31.33;;;;;;;;;;5090088;28;20296;-81
2021/12/16 08:19:30;;;;;;;80.47;33.17;;;;;;;;;;5089338;28;20561;-80
2021/12/16 08:21:57;;;;;;;88.00;33.07;;;;;;;;;;5085301;28;20237;-81
2021/12/16 08:24:25;;;;;;;88.30;34.20;;;;;;;;;;5085425;28;20229;-79
2021/12/16 08:26:54;;;;;;;80.67;31.97;;;;;;;;;;5081923;28;20244;-80
2021/12/16 08:29:24;;;;;;;78.50;31.63;;;;;;;;;;5084517;28;20231;-79
2021/12/16 08:31:51;;;;;;;63.77;27.70;;;;;;;;;;5082742;28;20240;-79
2021/12/16 08:34:19;;;;;;;63.53;27.73;;;;;;;;;;5086474;28;20197;-80
2021/12/16 08:36:46;;;;;;;64.43;25.73;;;;;;;;;;5094465;28;20951;-81
2021/12/16 08:39:14;;;;;;;51.23;21.43;;;;;;;;;;5093696;28;20667;-80
2021/12/16 08:41:43;;;;;;;45.80;21.03;;;;;;;;;;5091686;28;20233;-80
2021/12/16 08:44:13;;;;;;;56.17;24.30;;;;;;;;;;5091325;28;20234;-80
2021/12/16 08:46:42;;;;;;;54.27;22.63;;;;;;;;;;5090277;28;20198;-80
2021/12/16 08:49:10;;;;;;;56.07;24.13;;;;;;;;;;5088515;28;20254;-82
2021/12/16 08:51:39;;;;;;;55.63;24.00;;;;;;;;;;5091476;28;20229;-80
2021/12/16 08:54:06;;;;;;;55.67;24.63;;;;;;;;;;5096212;28;20703;-81
2021/12/16 08:56:34;;;;;;;68.57;28.43;;;;;;;;;;5096418;28;20733;-79
2021/12/16 08:59:02;;;;;;;66.73;27.57;;;;;;;;;;5090968;28;20293;-80
2021/12/16 09:01:32;;;;;;;59.20;27.23;;;;;;;;;;5090476;28;20211;-80
2021/12/16 09:04:00;;;;;;;60.77;27.03;;;;;;;;;;5093464;28;20250;-80
2021/12/16 09:06:27;;;;;;;60.20;26.30;;;;;;;;;;5087602;28;20245;-80
2021/12/16 09:08:55;;;;;;;53.97;23.03;;;;;;;;;;5088778;28;20229;-79
2021/12/16 09:11:24;;;;;;;52.97;22.67;;;;;;;;;;5087673;28;20256;-81
2021/12/16 09:13:54;;;;;;;59.00;23.93;;;;;;;;;;5090186;28;20209;-80
2021/12/16 09:16:23;;;;;;;52.17;23.50;;;;;;;;;;5091085;28;20253;-80
2021/12/16 09:18:52;;;;;;;53.27;23.70;;;;;;;;;;5093202;28;20241;-81
2021/12/16 09:21:22;;;;;;;48.50;22.07;;;;;;;;;;5086539;28;20199;-80
2021/12/16 09:23:50;;;;;;;49.87;23.03;;;;;;;;;;5094439;28;20223;-80
2021/12/16 09:26:17;;;;;;;49.53;21.70;;;;;;;;;;5087883;28;20265;-81
2021/12/16 09:28:45;;;;;;;45.80;20.80;;;;;;;;;;5086699;28;20266;-81
2021/12/16 09:31:14;;;;;;;50.93;20.87;;;;;;;;;;5090818;28;20781;-80
2021/12/16 09:33:43;;;;;;;50.07;21.20;;;;;;;;;;5088090;28;20194;-79
2021/12/16 09:36:12;;;;;;;145.93;46.07;;;;;;;;;;5088732;28;20221;-79
2021/12/16 09:38:40;;;;;;;166.80;55.57;;;;;;;;;;5090393;28;20254;-82
2021/12/16 09:41:07;;;;;;;206.50;61.17;;;;;;;;;;5088953;28;20241;-80
2021/12/16 09:43:36;;;;;;;185.43;60.03;;;;;;;;;;5090452;28;20258;-80
2021/12/16 09:46:04;;;;;;;174.53;55.43;;;;;;;;;;5089748;28;20237;-81
2021/12/16 09:48:32;;;;;;;158.53;52.70;;;;;;;;;;5089100;28;20642;-81
2021/12/16 09:51:00;;;;;;;124.60;43.93;;;9.00;99.90;;;;;;5082658;28;20228;-79
2021/12/16 09:53:29;;;;;;;98.20;37.07;;;7.90;99.90;;;;;;5082980;28;20210;-82
2021/12/16 09:56:00;;;;;;;90.83;36.77;;;7.80;99.90;;;;;;5088279;28;20251;-82
2021/12/16 09:58:29;;;;;;;87.47;35.20;;;7.80;99.90;;;;;;5084732;28;20636;-82
2021/12/16 10:00:56;;;;;;;82.40;34.53;;;7.90;99.90;;;;;;5089525;28;20293;-83
2021/12/16 10:03:24;;;;;;;95.27;37.63;;;8.00;99.90;;;;;;5084994;28;20637;-82
2021/12/16 10:05:51;;;;;;;97.20;38.13;;;8.10;99.90;;;;;;5089974;28;20262;-83
2021/12/16 10:08:18;;;;;;;94.83;36.93;;;8.30;99.90;;;;;;5083479;28;20217;-83
2021/12/16 10:10:47;;;;;;;99.03;36.00;;;8.30;99.90;;;;;;5087123;28;20323;-84
2021/12/16 10:13:21;;;;;;;90.80;34.03;;;8.40;99.90;;;;;;5086985;28;20223;-84
2021/12/16 10:18:33;;;;;;;57.53;24.50;;;8.70;99.90;;;;;;5083636;28;20255;-83
2021/12/16 10:21:04;;;;;;;47.07;22.20;;;;;;;;;;5085603;28;20320;-83
2021/12/16 10:23:33;;;;;;;62.30;25.70;;;;;;;;;;5084821;28;20223;-83
2021/12/16 10:26:04;;;;;;;55.57;25.90;;;;;;;;;;5086555;28;20251;-83
2021/12/16 10:28:32;;;;;;;57.30;23.73;;;;;;;;;;5083564;28;20213;-84
2021/12/16 10:31:02;;;;;;;50.90;24.47;;;;;;;;;;5087081;28;20720;-83
2021/12/16 10:33:31;;;;;;;53.33;24.37;;;;;;;;;;5085129;28;20205;-82
2021/12/16 10:36:00;;;;;;;53.63;23.17;;;;;;;;;;5088301;28;20324;-83
2021/12/16 10:38:28;;;;;;;55.13;22.93;;;;;;;;;;5082726;28;20202;-83
2021/12/16 10:40:56;;;;;;;44.93;19.47;;;;;;;;;;5088251;28;20205;-83
2021/12/16 10:43:34;;;;;;;53.17;21.77;;;;;;;;;;5086561;28;20205;-84
2021/12/16 10:46:02;;;;;;;48.47;21.27;;;;;;;;;;5088541;28;20316;-81
2021/12/16 10:48:30;;;;;;;44.67;18.87;;;;;;;;;;5089625;28;20612;-83
2021/12/16 10:51:13;;;;;;;45.17;16.17;;;;;;;;;;5089370;28;20757;-83
2021/12/16 10:53:49;;;;;;;40.03;16.10;;;;;;;;;;5101041;28;20214;-82
2021/12/16 10:56:19;;;;;;;43.87;18.47;;;;;;;;;;5081699;22;20293;-81
2021/12/16 10:59:05;;;;;;;47.20;19.93;;;;;;;;;;5069873;22;20625;-83
2021/12/16 11:01:35;;;;;;;49.93;21.10;;;;;;;;;;5047795;28;20199;-82
2021/12/16 11:04:03;;;;;;;46.27;20.73;;;;;;;;;;5052754;28;20237;-82
2021/12/16 11:06:31;;;;;;;48.73;19.73;;;;;;;;;;5033101;28;20407;-85
2021/12/16 11:09:13;;;;;;;44.93;18.80;;;;;;;;;;5032834;28;20294;-84
2021/12/16 11:11:40;;;;;;;45.27;19.07;;;;;;;;;;5028978;28;20224;-83
2021/12/16 11:14:09;;;;;;;49.63;20.93;;;;;;;;;;5029861;28;20310;-82
2021/12/16 11:16:37;;;;;;;48.23;21.57;;;;;;;;;;5031900;28;20311;-81
2021/12/16 11:19:05;;;;;;;65.37;28.00;;;;;;;;;;5029587;28;20211;-82
2021/12/16 11:21:39;;;;;;;68.73;28.40;;;;;;;;;;5028409;28;20208;-81
2021/12/16 11:24:22;;;;;;;60.77;26.43;;;;;;;;;;5031273;28;20218;-83
2021/12/16 11:26:49;;;;;;;56.53;22.30;;;;;;;;;;5028841;28;20236;-81
2021/12/16 11:29:18;;;;;;;52.20;21.77;;;;;;;;;;5032093;28;20367;-82
2021/12/16 11:31:47;;;;;;;57.07;24.23;;;;;;;;;;5029949;28;20228;-83
2021/12/16 11:34:15;;;;;;;54.53;24.07;;;;;;;;;;5026953;28;20212;-83
2021/12/16 11:36:44;;;;;;;37.73;15.53;;;;;;;;;;5030832;28;20250;-81
2021/12/16 11:39:12;;;;;;;37.07;14.90;;;;;;;;;;5030539;28;20223;-82
2021/12/16 11:41:40;;;;;;;33.17;13.07;;;;;;;;;;5027975;28;20223;-81
2021/12/16 11:44:10;;;;;;;32.57;13.77;;;;;;;;;;5029939;28;20586;-83
2021/12/16 11:46:41;;;;;;;33.90;13.70;;;;;;;;;;5033369;28;20314;-83
2021/12/16 11:49:10;;;;;;;30.93;13.00;;;;;;;;;;5027004;28;20200;-83
2021/12/16 11:51:38;;;;;;;29.77;13.23;;;;;;;;;;5032733;28;20227;-83
2021/12/16 11:54:06;;;;;;;26.33;12.30;;;;;;;;;;5031751;28;20754;-81
2021/12/16 11:56:36;;;;;;;31.73;13.37;;;;;;;;;;5025811;28;20231;-82
2021/12/16 11:59:03;;;;;;;33.27;13.70;;;;;;;;;;5031267;28;20211;-82
2021/12/16 12:01:31;;;;;;;29.30;12.57;;;;;;;;;;5029103;28;20270;-82
2021/12/16 12:04:03;;;;;;;35.17;13.63;;;;;;;;;;5032553;28;20204;-82
2021/12/16 12:06:32;;;;;;;34.03;12.87;;;;;;;;;;5035320;28;20227;-82
2021/12/16 12:09:00;;;;;;;29.47;12.17;;;;;;;;;;5031046;28;20578;-81
2021/12/16 12:11:29;;;;;;;29.03;11.63;;;;;;;;;;5029921;28;20235;-82
2021/12/16 12:13:58;;;;;;;32.57;12.57;;;;;;;;;;5036918;28;20207;-82
2021/12/16 12:16:28;;;;;;;34.77;12.63;;;;;;;;;;5031519;28;20311;-82
2021/12/16 12:18:57;;;;;;;31.90;12.83;;;;;;;;;;5033080;28;20207;-82
2021/12/16 12:21:30;;;;;;;36.37;14.47;;;;;;;;;;5031578;28;20204;-82
2021/12/16 12:23:58;;;;;;;28.57;12.47;;;;;;;;;;5029276;28;20224;-82
2021/12/16 12:26:26;;;;;;;31.73;12.07;;;;;;;;;;5032836;28;20234;-82
2021/12/16 12:28:54;;;;;;;25.40;10.87;;;;;;;;;;5034493;28;20227;-83
2021/12/16 12:31:22;;;;;;;33.53;12.60;;;;;;;;;;5030707;28;20338;-84
2021/12/16 12:33:50;;;;;;;38.63;12.63;;;;;;;;;;5033017;28;20267;-83
2021/12/16 12:36:19;;;;;;;30.50;12.03;;;;;;;;;;5032205;28;20255;-82
2021/12/16 12:38:48;;;;;;;35.23;12.70;;;;;;;;;;5031513;28;20200;-83
2021/12/16 12:41:15;;;;;;;37.70;13.33;;;;;;;;;;5033850;28;20291;-84
2021/12/16 12:43:43;;;;;;;34.13;13.83;;;;;;;;;;5029693;28;20250;-84
2021/12/16 12:46:13;;;;;;;34.80;13.40;;;;;;;;;;5034386;28;20251;-83
2021/12/16 12:48:41;;;;;;;37.03;14.57;;;;;;;;;;5028849;28;20200;-83
2021/12/16 12:51:09;;;;;;;33.67;13.63;;;;;;;;;;5033792;28;20651;-83
2021/12/16 12:53:38;;;;;;;34.07;14.37;;;;;;;;;;5032367;28;20771;-82
2021/12/16 12:56:14;;;;;;;36.50;14.80;;;;;;;;;;5027934;28;20236;-82
2021/12/16 12:58:53;;;;;;;38.33;14.33;;;;;;;;;;5031338;28;20246;-81
2021/12/16 13:01:33;;;;;;;39.10;16.03;;;;;;;;;;5033587;28;20287;-82
2021/12/16 13:04:03;;;;;;;38.90;14.90;;;;;;;;;;5027642;28;20707;-82
2021/12/16 13:06:32;;;;;;;37.03;14.60;;;;;;;;;;5031055;28;20224;-82
2021/12/16 13:09:03;;;;;;;41.27;15.83;;;;;;;;;;5030828;28;20232;-83
2021/12/16 13:11:32;;;;;;;40.10;15.50;;;;;;;;;;5042399;22;20232;-78
2021/12/16 13:14:07;;;;;;;39.03;15.53;;;;;;;;;;5034570;28;20232;-79
2021/12/16 13:28:16;;;;;;;42.73;15.83;;;;;;;;;;4990478;28;20250;-79
2021/12/16 13:30:55;;;;;;;43.83;17.47;;;;;;;;;;4988788;28;20212;-79
2021/12/16 13:33:25;;;;;;;44.57;17.03;;;;;;;;;;5010725;28;20219;-80
2021/12/16 13:36:01;;;;;;;46.30;16.20;;;;;;;;;;5028177;28;20228;-80
2021/12/16 13:38:36;;;;;;;55.47;18.80;;;;;;;;;;5028495;28;20207;-80
2021/12/16 13:41:09;;;;;;;44.40;16.47;;;;;;;;;;5028359;28;20751;-80
2021/12/16 13:43:38;;;;;;;46.70;17.33;;;;;;;;;;5032022;28;20208;-81
2021/12/16 13:46:26;;;;;;;48.30;16.90;;;;;;;;;;5027151;28;20634;-80
2021/12/16 13:58:07;;;;;;;44.23;17.17;;;;;;;;;;5028497;28;20812;-80
2021/12/16 14:03:05;;;;;;;50.90;17.87;;;;;;;;;;5005210;28;20232;-80
2021/12/16 14:05:43;;;;;;;56.23;17.70;;;;;;;;;;5021006;28;20263;-80
2021/12/16 14:08:13;;;;;;;54.07;18.30;;;;;;;;;;5025712;28;20216;-80
2021/12/16 14:10:50;;;;;;;54.37;19.13;;;;;;;;;;5026203;28;20274;-80
2021/12/16 14:16:21;;;;;;;50.07;18.77;;;;;;;;;;5024952;28;20219;-82
2021/12/16 14:24:53;;;;;;;62.83;20.50;;;;;;;;;;5023925;28;20254;-80
2021/12/16 14:31:07;;;;;;;52.77;17.87;;;;;;;;;;5025040;28;20204;-81
2021/12/16 14:36:12;;;;;;;60.40;19.53;;;;;;;;;;4997898;28;20251;-83
2021/12/16 14:41:40;;;;;;;62.63;20.80;;;;;;;;;;5019059;28;20589;-82
2021/12/16 14:45:09;;;;;;;59.53;19.57;;;;;;;;;;5023862;28;20214;-81
2021/12/16 14:47:11;;;;;;;63.50;21.33;;;;;;;;;;5023661;28;20205;-82
2021/12/16 14:49:42;;;;;;;60.97;21.47;;;;;;;;;;5020195;28;20277;-81
2021/12/16 14:52:14;;;;;;;66.27;21.53;;;;;;;;;;5022253;28;20307;-80
2021/12/16 14:54:47;;;;;;;59.70;21.20;;;;;;;;;;5023894;28;20238;-80
2021/12/16 14:57:14;;;;;;;63.40;22.17;;;;;;;;;;5026453;28;20289;-79
2021/12/16 14:59:41;;;;;;;66.03;20.97;;;;;;;;;;5022638;28;20200;-80
2021/12/16 15:02:10;;;;;;;65.17;20.63;;;;;;;;;;5025696;28;20929;-82
2021/12/16 15:04:39;;;;;;;60.37;21.07;;;;;;;;;;5021077;28;20713;-80
2021/12/16 15:07:10;;;;;;;53.00;19.73;;;;;;;;;;5020190;28;20660;-82
2021/12/16 15:09:39;;;;;;;61.27;19.43;;;;;;;;;;5021064;28;20211;-82
2021/12/16 15:12:12;;;;;;;66.00;21.53;;;;;;;;;;5017399;28;20228;-82
2021/12/16 15:14:57;;;;;;;60.03;20.27;;;;;;;;;;5019419;28;20229;-79
2021/12/16 15:17:45;;;;;;;68.27;21.17;;;;;;;;;;5020112;28;20317;-80
2021/12/16 15:37:27;;;;;;;62.70;20.80;;;;;;;;;;5015805;28;20258;-81
2021/12/16 15:40:08;;;;;;;58.13;19.67;;;;;;;;;;5020012;28;20655;-83
2021/12/16 15:42:48;;;;;;;64.60;21.33;;;;;;;;;;5017382;28;20200;-83
2021/12/16 15:45:17;;;;;;;55.20;19.17;;;;;;;;;;5018636;28;20306;-82
2021/12/16 15:47:47;;;;;;;63.20;20.97;;;;;;;;;;5008480;28;20204;-83
2021/12/16 15:50:15;;;;;;;52.80;18.77;;;;;;;;;;5007908;28;20325;-81
2021/12/16 15:52:46;;;;;;;54.53;18.63;;;;;;;;;;5003529;28;20228;-80
2021/12/16 15:55:20;;;;;;;62.70;19.83;;;;;;;;;;5004642;28;20231;-81
2021/12/16 15:57:48;;;;;;;56.23;20.77;;;;;;;;;;5006498;28;20209;-80
2021/12/16 16:00:18;;;;;;;67.53;27.53;;;;;;;;;;5009022;28;20287;-79
2021/12/16 16:02:45;;;;;;;54.07;20.20;;;;;;;;;;5019295;28;20635;-80
2021/12/16 16:05:13;;;;;;;64.33;24.73;;;;;;;;;;5016948;28;20499;-80
2021/12/16 16:07:41;;;;;;;65.20;22.77;;;;;;;;;;5014816;28;20253;-80
2021/12/16 16:10:11;;;;;;;65.90;21.40;;;;;;;;;;5013204;28;20303;-80
2021/12/16 16:12:38;;;;;;;75.63;24.97;;;;;;;;;;5018713;28;20921;-80
2021/12/16 16:15:16;;;;;;;73.90;22.93;;;;;;;;;;5018996;28;20319;-80
2021/12/16 16:17:54;;;;;;;68.43;23.07;;;;;;;;;;5016977;28;20208;-81
2021/12/16 16:20:21;;;;;;;69.30;24.43;;;;;;;;;;5017273;28;20297;-81
2021/12/16 16:22:49;;;;;;;67.43;23.13;;;;;;;;;;5017916;28;20227;-79
2021/12/16 16:25:18;;;;;;;76.07;22.83;;;;;;;;;;5023659;28;20247;-81
2021/12/16 16:27:46;;;;;;;70.07;22.57;;;;;;;;;;5014293;28;20566;-82
2021/12/16 16:30:13;;;;;;;65.07;22.43;;;;;;;;;;5022498;28;20323;-81
2021/12/16 16:33:01;;;;;;;67.07;22.43;;;;;;;;;;5008106;28;20223;-81
2021/12/16 16:35:28;;;;;;;68.90;22.40;;;;;;;;;;5006363;28;20224;-81
2021/12/16 16:38:07;;;;;;;67.27;22.23;;;;;;;;;;5017873;28;20232;-80
2021/12/16 16:40:38;;;;;;;68.70;21.80;;;;;;;;;;5013224;28;20635;-82
2021/12/16 16:43:17;;;;;;;66.07;21.43;;;;;;;;;;5025109;28;20207;-81
2021/12/16 16:45:44;;;;;;;66.67;22.53;;;;;;;;;;5017212;28;20364;-81
2021/12/16 16:48:28;;;;;;;67.27;22.10;;;;;;;;;;5021461;28;20210;-81
2021/12/16 16:51:03;;;;;;;67.30;22.53;;;;;;;;;;5015869;28;20204;-82
2021/12/16 16:53:31;;;;;;;65.00;21.50;;;;;;;;;;5024403;28;20302;-81
2021/12/16 16:56:02;;;;;;;65.97;21.93;;;;;;;;;;5013921;28;20310;-81
2021/12/16 16:58:34;;;;;;;73.10;21.73;;;;;;;;;;5014126;28;20205;-81
2021/12/16 17:01:03;;;;;;;73.60;22.37;;;;;;;;;;5009960;28;20336;-81
2021/12/16 17:03:31;;;;;;;60.17;20.17;;;;;;;;;;5014829;28;20204;-81
2021/12/16 17:06:02;;;;;;;63.00;19.97;;;;;;;;;;5009635;28;20230;-81
2021/12/16 17:08:30;;;;;;;63.83;20.60;;;;;;;;;;5011034;28;20330;-81
2021/12/16 17:10:59;;;;;;;74.40;23.40;;;;;;;;;;5011164;28;20299;-81